Time;durP1;ratioP1;P1;durP2;ratioP2;P2;SDS_P1;SDS_P2;PMS_P1;PMS_P2;Temp;Humidity;BMP_temperature;BMP_pressure;BME280_temperature;BME280_humidity;BME280_pressure;Samples;Min_cycle;Max_cycle;Signal;HPM_P1;HPM_P2
2020/12/10 00:00:08;;;;;;;1.70;1.60;;;0.40;98.20;;;;;;5046939;28;20958;-74
2020/12/10 00:02:36;;;;;;;1.70;1.60;;;0.30;98.20;;;;;;5044916;28;20991;-73
2020/12/10 00:05:03;;;;;;;1.80;1.70;;;0.40;98.20;;;;;;5042546;28;20470;-73
2020/12/10 00:07:29;;;;;;;1.90;1.80;;;0.30;98.20;;;;;;5035788;28;20491;-74
2020/12/10 00:09:56;;;;;;;1.80;1.70;;;0.30;98.20;;;;;;5047309;28;20467;-74
2020/12/10 00:12:22;;;;;;;1.70;1.60;;;0.30;98.20;;;;;;5044262;28;20462;-73
2020/12/10 00:14:53;;;;;;;1.70;1.60;;;0.30;98.20;;;;;;5048799;28;20486;-75
2020/12/10 00:17:24;;;;;;;1.80;1.70;;;0.30;98.20;;;;;;5048064;28;21082;-74
2020/12/10 00:19:51;;;;;;;1.80;1.70;;;0.30;98.20;;;;;;5042646;28;20486;-75
2020/12/10 00:22:18;;;;;;;1.70;1.60;;;0.30;98.20;;;;;;5043988;28;21180;-75
2020/12/10 00:24:44;;;;;;;1.90;1.80;;;0.30;98.20;;;;;;5038559;28;20460;-74
2020/12/10 00:27:11;;;;;;;1.80;1.70;;;0.40;98.20;;;;;;5036544;28;20491;-74
2020/12/10 00:29:37;;;;;;;1.70;1.60;;;0.40;98.20;;;;;;5048754;28;20464;-74
2020/12/10 00:32:04;;;;;;;1.70;1.60;;;0.40;98.20;;;;;;5047745;28;20512;-75
2020/12/10 00:34:30;;;;;;;1.90;1.80;;;0.40;98.20;;;;;;5048491;28;20853;-73
2020/12/10 00:36:58;;;;;;;2.37;2.17;;;0.30;98.20;;;;;;5037363;28;20514;-74
2020/12/10 00:39:24;;;;;;;1.70;1.60;;;0.30;98.20;;;;;;5041595;28;20504;-73
2020/12/10 00:41:54;;;;;;;1.70;1.60;;;0.40;98.20;;;;;;5039154;28;20456;-74
2020/12/10 00:44:20;;;;;;;1.90;1.80;;;0.30;98.20;;;;;;5041829;28;20572;-73
2020/12/10 00:46:47;;;;;;;1.70;1.60;;;0.30;98.20;;;;;;5043425;28;20506;-75
2020/12/10 00:49:13;;;;;;;1.90;1.80;;;0.30;98.20;;;;;;5043788;28;20510;-73
2020/12/10 00:51:40;;;;;;;1.90;1.80;;;0.30;98.20;;;;;;5039632;28;20479;-73
2020/12/10 00:54:07;;;;;;;1.63;1.50;;;0.30;98.20;;;;;;5045103;28;20936;-74
2020/12/10 00:56:36;;;;;;;1.80;1.70;;;0.30;98.20;;;;;;5040026;28;20481;-74
2020/12/10 00:59:03;;;;;;;1.70;1.60;;;0.30;98.20;;;;;;5042236;28;20518;-73
2020/12/10 01:01:29;;;;;;;1.80;1.70;;;0.30;98.20;;;;;;5043913;28;20548;-74
2020/12/10 01:03:56;;;;;;;3.13;2.37;;;0.30;98.20;;;;;;5053468;28;20502;-74
2020/12/10 01:06:22;;;;;;;1.83;1.73;;;0.20;98.20;;;;;;5037176;28;20521;-74
2020/12/10 01:08:48;;;;;;;1.77;1.67;;;0.20;98.20;;;;;;5035287;28;20752;-73
2020/12/10 01:11:16;;;;;;;1.90;1.80;;;0.20;98.20;;;;;;5053701;28;20495;-74
2020/12/10 01:13:43;;;;;;;4.13;3.83;;;0.20;98.20;;;;;;5046619;28;20720;-74
2020/12/10 01:16:09;;;;;;;1.80;1.70;;;0.20;98.20;;;;;;5038684;28;20894;-75
2020/12/10 01:18:36;;;;;;;1.60;1.50;;;0.20;98.20;;;;;;5040317;28;20521;-74
2020/12/10 01:21:03;;;;;;;1.80;1.70;;;0.20;98.20;;;;;;5031481;28;20533;-74
2020/12/10 01:23:29;;;;;;;1.93;1.83;;;0.10;98.20;;;;;;5035674;28;20491;-74
2020/12/10 01:25:55;;;;;;;1.90;1.80;;;0.10;98.20;;;;;;5034634;28;20501;-73
2020/12/10 01:28:23;;;;;;;1.80;1.70;;;0.10;98.20;;;;;;5043179;28;20961;-74
2020/12/10 01:30:49;;;;;;;2.10;1.90;;;0.10;98.20;;;;;;5047081;28;20986;-74
2020/12/10 01:33:16;;;;;;;1.70;1.60;;;0.10;98.20;;;;;;5043829;28;20484;-74
2020/12/10 01:35:43;;;;;;;1.80;1.70;;;0.10;98.20;;;;;;5040930;28;21101;-74
2020/12/10 01:38:10;;;;;;;1.80;1.70;;;0.10;98.20;;;;;;5031636;28;20555;-74
2020/12/10 01:40:36;;;;;;;1.67;1.57;;;0.10;98.20;;;;;;5037552;28;20463;-74
2020/12/10 01:43:03;;;;;;;1.73;1.63;;;0.10;98.20;;;;;;5041936;28;20580;-74
2020/12/10 01:45:30;;;;;;;1.70;1.60;;;0.10;98.20;;;;;;5037678;28;20760;-73
2020/12/10 01:47:57;;;;;;;1.70;1.60;;;0.10;98.20;;;;;;5030707;28;20459;-72
2020/12/10 01:50:23;;;;;;;2.10;2.00;;;0.10;98.20;;;;;;5040324;28;20513;-75
2020/12/10 01:52:52;;;;;;;1.70;1.60;;;0.00;98.20;;;;;;5041102;28;20460;-72
2020/12/10 01:55:18;;;;;;;1.90;1.80;;;0.10;98.20;;;;;;5034090;28;20941;-75
2020/12/10 01:57:45;;;;;;;1.70;1.60;;;0.10;98.20;;;;;;5038299;28;20557;-74
2020/12/10 02:00:11;;;;;;;1.80;1.70;;;0.00;98.20;;;;;;5057693;28;20881;-75
2020/12/10 02:02:39;;;;;;;1.80;1.70;;;0.10;98.20;;;;;;5045345;28;20485;-75
2020/12/10 02:05:05;;;;;;;1.90;1.80;;;0.10;98.20;;;;;;5038490;28;20477;-74
2020/12/10 02:07:31;;;;;;;3.03;2.83;;;0.10;98.20;;;;;;5040384;28;21096;-75
2020/12/10 02:09:58;;;;;;;1.83;1.73;;;0.10;98.20;;;;;;5041907;28;20487;-73
2020/12/10 02:12:24;;;;;;;1.80;1.70;;;0.10;98.20;;;;;;5047794;28;20582;-74
2020/12/10 02:14:51;;;;;;;1.70;1.60;;;0.10;98.20;;;;;;5032141;28;20494;-74
2020/12/10 02:17:17;;;;;;;1.80;1.70;;;0.10;98.20;;;;;;5033604;28;20550;-75
2020/12/10 02:19:46;;;;;;;1.70;1.60;;;0.10;98.20;;;;;;5045097;28;20491;-74
2020/12/10 02:22:12;;;;;;;1.63;1.53;;;0.10;98.20;;;;;;5036697;28;20467;-73
2020/12/10 02:24:40;;;;;;;1.70;1.60;;;0.10;98.20;;;;;;5039265;28;20579;-74
2020/12/10 02:27:06;;;;;;;1.90;1.80;;;0.10;98.20;;;;;;5031611;28;20498;-74
2020/12/10 02:29:32;;;;;;;3.60;3.40;;;0.10;98.20;;;;;;5041060;28;20472;-74
2020/12/10 02:31:59;;;;;;;2.00;1.90;;;0.10;98.20;;;;;;5047610;28;20559;-75
2020/12/10 02:34:25;;;;;;;1.80;1.70;;;0.10;98.20;;;;;;5040320;28;20558;-74
2020/12/10 02:36:52;;;;;;;1.90;1.80;;;0.10;98.20;;;;;;5039998;28;20518;-74
2020/12/10 02:39:19;;;;;;;1.70;1.60;;;0.10;98.20;;;;;;5039099;28;20471;-74
2020/12/10 02:41:47;;;;;;;1.80;1.70;;;0.10;98.20;;;;;;5040872;28;20470;-74
2020/12/10 02:44:14;;;;;;;2.00;1.90;;;0.10;98.20;;;;;;5032420;28;20492;-75
2020/12/10 02:46:40;;;;;;;1.70;1.60;;;0.10;98.20;;;;;;5041004;28;20530;-75
2020/12/10 02:49:07;;;;;;;1.90;1.80;;;0.10;98.20;;;;;;5037582;28;20506;-73
2020/12/10 02:51:34;;;;;;;2.33;2.13;;;0.10;98.20;;;;;;5038150;28;20454;-75
2020/12/10 02:54:00;;;;;;;1.70;1.60;;;0.10;98.20;;;;;;5029824;28;20496;-72
2020/12/10 02:56:27;;;;;;;1.90;1.80;;;0.10;98.20;;;;;;5037783;28;20483;-73
2020/12/10 02:58:54;;;;;;;1.80;1.70;;;0.10;98.20;;;;;;5048535;28;20519;-73
2020/12/10 03:01:21;;;;;;;1.80;1.70;;;0.10;98.20;;;;;;5047925;28;20459;-74
2020/12/10 03:03:47;;;;;;;5.63;5.23;;;0.00;98.20;;;;;;5036269;28;20533;-74
2020/12/10 03:06:14;;;;;;;1.77;1.67;;;0.00;98.20;;;;;;5040757;28;20571;-74
2020/12/10 03:08:41;;;;;;;1.70;1.60;;;0.00;98.20;;;;;;5036017;28;20459;-74
2020/12/10 03:11:08;;;;;;;1.80;1.70;;;0.00;98.20;;;;;;5031269;28;20822;-73
2020/12/10 03:13:34;;;;;;;1.70;1.60;;;0.00;98.20;;;;;;5044880;28;20586;-74
2020/12/10 03:16:02;;;;;;;1.93;1.83;;;0.00;98.20;;;;;;5041488;28;20475;-74
2020/12/10 03:18:28;;;;;;;1.90;1.80;;;0.00;98.20;;;;;;5038034;28;20509;-74
2020/12/10 03:20:55;;;;;;;1.73;1.63;;;0.00;98.20;;;;;;5043946;28;20898;-75
2020/12/10 03:23:22;;;;;;;1.90;1.80;;;0.00;98.20;;;;;;5036049;28;20537;-72
2020/12/10 03:25:48;;;;;;;1.70;1.60;;;-0.10;98.20;;;;;;5042289;28;20682;-75
2020/12/10 03:28:15;;;;;;;1.70;1.60;;;-0.10;98.20;;;;;;5039541;28;20557;-75
2020/12/10 03:30:42;;;;;;;2.30;2.10;;;0.00;98.20;;;;;;5045644;28;21015;-74
2020/12/10 03:33:09;;;;;;;3.00;2.80;;;-0.10;98.20;;;;;;5039144;28;20491;-74
2020/12/10 03:35:36;;;;;;;1.90;1.80;;;-0.10;98.20;;;;;;5037837;28;20513;-74
2020/12/10 03:38:02;;;;;;;1.67;1.57;;;-0.10;98.20;;;;;;5033994;28;20464;-73
2020/12/10 03:40:29;;;;;;;1.73;1.63;;;0.00;98.20;;;;;;5029720;28;20558;-74
2020/12/10 03:42:55;;;;;;;1.80;1.70;;;0.00;98.20;;;;;;5040578;28;21085;-74
2020/12/10 03:45:22;;;;;;;2.87;2.67;;;-0.10;98.20;;;;;;5040271;28;20894;-72
2020/12/10 03:47:48;;;;;;;1.70;1.60;;;-0.10;98.20;;;;;;5048613;28;20482;-74
2020/12/10 03:50:15;;;;;;;1.70;1.60;;;-0.10;98.20;;;;;;5047660;28;20470;-75
2020/12/10 03:52:42;;;;;;;1.87;1.77;;;-0.10;98.20;;;;;;5042585;28;20458;-74
2020/12/10 03:55:08;;;;;;;1.70;1.60;;;-0.10;98.20;;;;;;5034662;28;20468;-75
2020/12/10 03:57:35;;;;;;;2.27;2.07;;;-0.10;98.20;;;;;;5037258;28;20486;-75
2020/12/10 04:00:01;;;;;;;1.70;1.60;;;-0.10;98.20;;;;;;5039451;28;20519;-75
2020/12/10 04:02:28;;;;;;;1.80;1.70;;;-0.10;98.20;;;;;;5040226;28;20506;-76
2020/12/10 04:04:54;;;;;;;1.90;1.80;;;-0.10;98.20;;;;;;5032914;28;20579;-74
2020/12/10 04:07:21;;;;;;;1.80;1.70;;;-0.20;98.20;;;;;;5040997;28;20514;-75
2020/12/10 04:09:48;;;;;;;1.70;1.60;;;-0.20;98.20;;;;;;5039548;28;20455;-75
2020/12/10 04:12:14;;;;;;;1.70;1.60;;;-0.20;98.20;;;;;;5033423;28;20674;-75
2020/12/10 04:14:41;;;;;;;1.80;1.70;;;-0.20;98.20;;;;;;5031614;28;20746;-74
2020/12/10 04:17:07;;;;;;;1.70;1.60;;;-0.20;98.20;;;;;;5037574;28;20502;-75
2020/12/10 04:19:33;;;;;;;1.77;1.67;;;-0.20;98.20;;;;;;5038272;28;20546;-76
2020/12/10 04:22:00;;;;;;;2.03;1.93;;;-0.20;98.20;;;;;;5047364;28;20491;-75
2020/12/10 04:24:27;;;;;;;1.80;1.70;;;-0.20;98.20;;;;;;5044263;28;20483;-73
2020/12/10 04:26:55;;;;;;;2.10;1.90;;;-0.20;98.20;;;;;;5036851;28;20519;-74
2020/12/10 04:29:21;;;;;;;1.80;1.70;;;-0.20;98.20;;;;;;5039527;28;20464;-73
2020/12/10 04:31:48;;;;;;;1.70;1.60;;;-0.20;98.20;;;;;;5045760;28;20955;-74
2020/12/10 04:34:14;;;;;;;1.80;1.70;;;-0.20;98.20;;;;;;5041988;28;20506;-75
2020/12/10 04:36:41;;;;;;;1.77;1.67;;;-0.20;98.20;;;;;;5039373;28;20565;-75
2020/12/10 04:39:07;;;;;;;1.77;1.67;;;-0.20;98.20;;;;;;5046129;28;20505;-74
2020/12/10 04:41:36;;;;;;;1.67;1.57;;;-0.20;98.20;;;;;;5043280;28;20459;-74
2020/12/10 04:44:03;;;;;;;1.77;1.67;;;-0.20;98.20;;;;;;5041101;28;20958;-75
2020/12/10 04:46:31;;;;;;;2.00;1.90;;;-0.20;98.20;;;;;;5033383;28;20522;-75
2020/12/10 04:48:58;;;;;;;1.73;1.63;;;-0.20;98.20;;;;;;5040464;28;20532;-73
2020/12/10 04:51:26;;;;;;;2.00;1.90;;;-0.30;98.20;;;;;;5046112;28;20482;-74
2020/12/10 04:53:53;;;;;;;10.30;4.67;;;-0.30;98.20;;;;;;5041433;28;21277;-76
2020/12/10 04:56:20;;;;;;;1.90;1.80;;;-0.30;98.20;;;;;;5042364;28;20511;-74
2020/12/10 04:58:48;;;;;;;1.77;1.67;;;-0.30;98.20;;;;;;5049470;28;20474;-74
2020/12/10 05:01:16;;;;;;;1.80;1.70;;;-0.30;98.20;;;;;;5044013;28;20529;-75
2020/12/10 05:03:45;;;;;;;1.80;1.70;;;-0.30;98.20;;;;;;5034251;28;21063;-74
2020/12/10 05:06:13;;;;;;;1.80;1.70;;;-0.30;98.20;;;;;;5039018;28;20494;-74
2020/12/10 05:08:40;;;;;;;1.70;1.60;;;-0.30;98.20;;;;;;5041612;28;20467;-73
2020/12/10 05:11:07;;;;;;;1.80;1.70;;;-0.30;98.20;;;;;;5044882;28;20464;-74
2020/12/10 05:13:34;;;;;;;1.73;1.63;;;-0.30;98.20;;;;;;5047339;28;20530;-74
2020/12/10 05:16:25;;;;;;;1.87;1.77;;;-0.30;98.20;;;;;;5052650;28;20792;-72
2020/12/10 05:19:11;;;;;;;2.27;2.07;;;-0.30;98.20;;;;;;5052431;28;20456;-74
2020/12/10 05:21:37;;;;;;;1.80;1.70;;;-0.20;98.20;;;;;;5046244;28;21040;-74
2020/12/10 05:24:20;;;;;;;1.80;1.70;;;-0.30;98.20;;;;;;5033567;28;20502;-74
2020/12/10 05:26:47;;;;;;;1.90;1.80;;;-0.20;98.20;;;;;;5045657;28;20541;-72
2020/12/10 05:29:33;;;;;;;5.50;5.10;;;-0.30;98.20;;;;;;5058931;28;20463;-74
2020/12/10 05:32:00;;;;;;;2.10;2.00;;;-0.20;98.20;;;;;;5042549;28;20514;-74
2020/12/10 05:34:38;;;;;;;3.40;3.20;;;-0.20;98.20;;;;;;5053790;28;21026;-72
2020/12/10 05:37:05;;;;;;;2.00;1.90;;;-0.20;98.20;;;;;;5042657;28;20529;-74
2020/12/10 05:39:31;;;;;;;1.80;1.70;;;-0.20;98.20;;;;;;5051068;28;20501;-73
2020/12/10 05:42:04;;;;;;;1.93;1.83;;;-0.20;98.20;;;;;;5044136;28;20523;-73
2020/12/10 05:44:31;;;;;;;1.80;1.70;;;-0.20;98.20;;;;;;5041445;28;20550;-73
2020/12/10 05:47:05;;;;;;;1.70;1.60;;;-0.20;98.20;;;;;;5045826;28;20848;-74
2020/12/10 05:49:32;;;;;;;2.97;2.77;;;-0.20;98.20;;;;;;5047615;28;20876;-74
2020/12/10 05:52:04;;;;;;;2.10;2.00;;;-0.20;98.20;;;;;;5044353;28;20456;-74
2020/12/10 05:54:33;;;;;;;1.87;1.77;;;-0.30;98.20;;;;;;5038932;28;20448;-74
2020/12/10 05:57:02;;;;;;;1.90;1.80;;;-0.30;98.20;;;;;;5032213;28;20988;-74
2020/12/10 05:59:35;;;;;;;2.63;2.43;;;-0.30;98.20;;;;;;5039359;28;20498;-74
2020/12/10 06:02:04;;;;;;;1.80;1.70;;;-0.20;98.20;;;;;;5043258;28;20652;-74
2020/12/10 06:04:42;;;;;;;1.80;1.70;;;-0.30;98.20;;;;;;5045237;28;20553;-75
2020/12/10 06:07:11;;;;;;;2.47;2.27;;;-0.30;98.20;;;;;;5042198;28;20488;-74
2020/12/10 06:09:38;;;;;;;1.80;1.70;;;-0.30;98.20;;;;;;5035161;28;20976;-74
2020/12/10 06:12:22;;;;;;;;;;;;;;;;;;;;;
2020/12/10 06:14:53;;;;;;;1.70;1.60;;;-0.20;98.20;;;;;;5031870;28;20467;-74
2020/12/10 06:17:22;;;;;;;1.90;1.80;;;-0.20;98.20;;;;;;5051962;28;20485;-75
2020/12/10 06:19:51;;;;;;;1.70;1.60;;;-0.20;98.20;;;;;;5056774;28;20474;-74
2020/12/10 06:22:26;;;;;;;1.73;1.63;;;-0.20;98.20;;;;;;5053259;28;20454;-74
2020/12/10 06:24:53;;;;;;;1.83;1.73;;;-0.20;98.20;;;;;;5038461;28;20486;-74
2020/12/10 06:27:30;;;;;;;1.70;1.60;;;-0.20;98.20;;;;;;5041639;28;20480;-73
2020/12/10 06:30:18;;;;;;;1.80;1.70;;;-0.20;98.20;;;;;;5046387;28;20905;-72
2020/12/10 06:32:49;;;;;;;2.00;1.90;;;-0.20;98.20;;;;;;5037803;28;20914;-74
2020/12/10 06:35:34;;;;;;;2.03;1.93;;;-0.30;98.20;;;;;;5062580;28;20486;-73
2020/12/10 06:38:01;;;;;;;1.80;1.70;;;-0.30;98.20;;;;;;5047643;28;20828;-73
2020/12/10 06:40:31;;;;;;;1.70;1.60;;;-0.30;98.20;;;;;;5043370;28;20537;-74
2020/12/10 06:42:57;;;;;;;1.80;1.70;;;-0.30;98.20;;;;;;5041167;28;20524;-72
2020/12/10 06:45:33;;;;;;;1.90;1.80;;;-0.30;98.20;;;;;;5051607;28;20482;-74
2020/12/10 06:48:03;;;;;;;1.70;1.60;;;-0.30;98.20;;;;;;5045201;28;20459;-74
2020/12/10 06:50:30;;;;;;;1.90;1.80;;;-0.30;98.20;;;;;;5047752;28;20480;-74
2020/12/10 06:53:24;;;;;;;1.80;1.70;;;-0.30;98.20;;;;;;5047651;28;20471;-73
2020/12/10 06:56:05;;;;;;;1.80;1.70;;;-0.30;98.20;;;;;;5034381;28;20498;-74
2020/12/10 06:58:57;;;;;;;1.80;1.70;;;-0.30;98.20;;;;;;5048577;28;21047;-75
2020/12/10 07:01:28;;;;;;;1.87;1.77;;;-0.30;98.20;;;;;;5048008;28;20472;-74
2020/12/10 07:04:15;;;;;;;1.80;1.70;;;-0.30;98.20;;;;;;5042613;28;20941;-75
2020/12/10 07:06:42;;;;;;;1.83;1.73;;;-0.30;98.20;;;;;;5047803;28;21051;-74
2020/12/10 07:09:10;;;;;;;1.77;1.67;;;-0.30;98.20;;;;;;5039939;28;20462;-76
2020/12/10 07:11:42;;;;;;;1.83;1.73;;;-0.30;98.20;;;;;;5044244;28;20455;-73
2020/12/10 07:14:22;;;;;;;1.90;1.80;;;-0.30;98.20;;;;;;5046606;28;20516;-73
2020/12/10 07:16:49;;;;;;;2.00;1.90;;;-0.30;98.20;;;;;;5045921;28;20475;-74
2020/12/10 07:19:17;;;;;;;2.03;1.93;;;-0.30;98.20;;;;;;5048322;28;20469;-74
2020/12/10 07:21:50;;;;;;;1.80;1.70;;;-0.30;98.20;;;;;;5048403;28;20526;-73
2020/12/10 07:24:17;;;;;;;1.80;1.70;;;-0.30;98.20;;;;;;5046726;28;20860;-73
2020/12/10 07:26:44;;;;;;;1.90;1.80;;;-0.30;98.20;;;;;;5041741;28;20491;-73
2020/12/10 07:29:13;;;;;;;1.80;1.70;;;-0.30;98.20;;;;;;5042776;28;20970;-73
2020/12/10 07:31:45;;;;;;;1.70;1.60;;;-0.30;98.20;;;;;;5048276;28;20463;-74
2020/12/10 07:34:11;;;;;;;1.80;1.70;;;-0.30;98.20;;;;;;5038104;28;20725;-74
2020/12/10 07:36:49;;;;;;;1.90;1.80;;;-0.40;98.20;;;;;;5041058;28;20514;-74
2020/12/10 07:39:30;;;;;;;1.90;1.80;;;-0.40;98.20;;;;;;5043493;28;20495;-73
2020/12/10 07:41:58;;;;;;;1.80;1.70;;;-0.40;98.20;;;;;;5037167;28;20459;-74
2020/12/10 07:44:26;;;;;;;1.80;1.70;;;-0.40;98.20;;;;;;5039519;28;20479;-72
2020/12/10 07:46:53;;;;;;;1.90;1.80;;;-0.40;98.20;;;;;;5036868;28;20509;-72
2020/12/10 07:49:30;;;;;;;1.93;1.83;;;-0.40;98.20;;;;;;5037201;28;20460;-72
2020/12/10 07:52:08;;;;;;;1.90;1.80;;;-0.40;98.20;;;;;;5043621;28;20873;-74
2020/12/10 07:54:44;;;;;;;1.80;1.70;;;-0.30;98.20;;;;;;5034755;28;20478;-74
2020/12/10 07:57:22;;;;;;;1.70;1.60;;;-0.30;98.20;;;;;;5041265;28;20490;-74
2020/12/10 07:59:56;;;;;;;1.90;1.80;;;-0.30;98.20;;;;;;5044938;28;20470;-73
2020/12/10 08:02:50;;;;;;;1.70;1.60;;;-0.20;98.20;;;;;;5044591;28;20462;-73
2020/12/10 08:05:18;;;;;;;1.70;1.60;;;-0.20;98.20;;;;;;5042110;28;20541;-73
2020/12/10 08:07:51;;;;;;;2.07;1.93;;;-0.10;98.20;;;;;;5040137;28;20548;-74
2020/12/10 08:10:22;;;;;;;1.93;1.83;;;-0.10;98.20;;;;;;5039577;28;20471;-73
2020/12/10 08:13:11;;;;;;;3.13;2.93;;;0.00;98.20;;;;;;5043939;28;20467;-74
2020/12/10 08:15:38;;;;;;;1.90;1.80;;;0.00;98.20;;;;;;5043913;28;20452;-73
2020/12/10 08:18:06;;;;;;;1.77;1.67;;;0.00;98.20;;;;;;5039718;28;20462;-72
2020/12/10 08:20:42;;;;;;;1.70;1.60;;;0.10;98.20;;;;;;5042132;28;20474;-73
2020/12/10 08:23:09;;;;;;;1.70;1.60;;;0.10;98.20;;;;;;5045506;28;20499;-73
2020/12/10 08:25:36;;;;;;;2.20;2.00;;;0.10;98.20;;;;;;5043227;28;20495;-73
2020/12/10 08:28:05;;;;;;;1.93;1.83;;;0.10;98.20;;;;;;5049994;28;20850;-73
2020/12/10 08:30:35;;;;;;;1.90;1.80;;;0.20;98.20;;;;;;5048259;28;20471;-71
2020/12/10 08:33:14;;;;;;;1.70;1.60;;;0.20;98.20;;;;;;5049747;28;20466;-73
2020/12/10 08:35:42;;;;;;;1.70;1.60;;;0.20;98.20;;;;;;5048520;28;20459;-73
2020/12/10 08:38:10;;;;;;;2.10;2.00;;;0.30;98.20;;;;;;5040224;28;20466;-74
2020/12/10 08:40:40;;;;;;;1.70;1.60;;;0.30;98.20;;;;;;5043561;28;20562;-74
2020/12/10 08:43:12;;;;;;;2.13;1.93;;;0.40;98.20;;;;;;5050496;28;20495;-73
2020/12/10 08:45:43;;;;;;;1.80;1.70;;;0.50;98.20;;;;;;5041267;28;20487;-74
2020/12/10 08:48:11;;;;;;;1.70;1.60;;;0.60;98.20;;;;;;5049088;28;20466;-72
2020/12/10 08:50:48;;;;;;;2.40;2.20;;;0.70;98.20;;;;;;5050277;28;20458;-72
2020/12/10 08:53:15;;;;;;;1.80;1.70;;;0.70;98.20;;;;;;5044391;28;20466;-73
2020/12/10 08:55:45;;;;;;;1.80;1.70;;;0.70;98.20;;;;;;5044527;28;20455;-72
2020/12/10 08:58:16;;;;;;;1.83;1.73;;;0.70;98.20;;;;;;5049064;28;20474;-74
2020/12/10 09:00:43;;;;;;;1.77;1.67;;;0.70;98.20;;;;;;5049448;28;20472;-74
2020/12/10 09:03:09;;;;;;;1.70;1.60;;;0.70;98.20;;;;;;5054325;28;20464;-74
2020/12/10 09:05:36;;;;;;;1.73;1.63;;;0.80;98.20;;;;;;5055177;28;20861;-76
2020/12/10 09:08:09;;;;;;;1.90;1.80;;;0.80;98.20;;;;;;5048654;28;20467;-74
2020/12/10 09:10:40;;;;;;;1.83;1.73;;;0.80;98.20;;;;;;5058465;28;20663;-74
2020/12/10 09:13:08;;;;;;;1.73;1.63;;;0.90;98.20;;;;;;5042284;28;20470;-73
2020/12/10 09:15:35;;;;;;;1.90;1.80;;;0.90;98.20;;;;;;5043192;28;20464;-75
2020/12/10 09:18:02;;;;;;;1.60;1.50;;;0.90;98.20;;;;;;5045562;28;20510;-73
2020/12/10 09:20:28;;;;;;;1.80;1.70;;;0.90;98.20;;;;;;5046902;28;20464;-73
2020/12/10 09:22:56;;;;;;;1.90;1.80;;;0.90;98.20;;;;;;5066063;28;20514;-74
2020/12/10 09:25:24;;;;;;;1.80;1.70;;;0.90;98.20;;;;;;5052073;28;20487;-74
2020/12/10 09:27:52;;;;;;;1.90;1.73;;;1.00;98.20;;;;;;5044325;28;20487;-74
2020/12/10 09:30:28;;;;;;;3.57;3.37;;;1.00;98.20;;;;;;5058535;28;20997;-74
2020/12/10 09:33:03;;;;;;;1.70;1.57;;;1.00;98.20;;;;;;5051101;28;20537;-73
2020/12/10 09:35:30;;;;;;;1.80;1.70;;;1.10;98.20;;;;;;5048145;28;20491;-74
2020/12/10 09:37:57;;;;;;;2.20;2.00;;;1.10;98.20;;;;;;5048801;28;20462;-73
2020/12/10 09:40:23;;;;;;;1.70;1.60;;;1.10;98.20;;;;;;5051878;28;20943;-74
2020/12/10 09:42:57;;;;;;;1.70;1.60;;;1.20;98.20;;;;;;5049670;28;20464;-73
2020/12/10 09:45:23;;;;;;;2.00;1.90;;;1.20;98.20;;;;;;5049242;28;20545;-72
2020/12/10 09:48:13;;;;;;;1.70;1.60;;;1.20;98.20;;;;;;5050832;28;20511;-74
2020/12/10 09:50:40;;;;;;;1.70;1.60;;;1.30;98.20;;;;;;5047999;28;20528;-74
2020/12/10 09:53:10;;;;;;;1.80;1.70;;;1.30;98.20;;;;;;5047462;28;20476;-73
2020/12/10 09:58:37;;;;;;;1.90;1.80;;;1.30;98.20;;;;;;5047247;28;20458;-73
2020/12/10 10:01:03;;;;;;;1.70;1.60;;;1.40;98.20;;;;;;5066904;28;20458;-74
2020/12/10 10:03:31;;;;;;;1.87;1.77;;;1.40;98.20;;;;;;5044570;28;20518;-74
2020/12/10 10:05:58;;;;;;;4.43;4.13;;;1.50;98.20;;;;;;5048576;28;20544;-72
2020/12/10 10:08:27;;;;;;;1.70;1.60;;;1.50;98.20;;;;;;5048873;28;20493;-75
2020/12/10 10:10:54;;;;;;;1.70;1.60;;;1.50;98.20;;;;;;5046387;28;20451;-74
2020/12/10 10:13:21;;;;;;;1.80;1.70;;;1.60;98.20;;;;;;5045469;28;20456;-74
2020/12/10 10:15:48;;;;;;;1.73;1.63;;;1.60;98.20;;;;;;5044790;28;20475;-75
2020/12/10 10:18:16;;;;;;;2.00;1.90;;;1.70;98.20;;;;;;5046276;28;20455;-73
2020/12/10 10:20:43;;;;;;;1.80;1.70;;;1.70;98.20;;;;;;5049703;28;20463;-73
2020/12/10 10:23:10;;;;;;;1.90;1.80;;;1.80;98.20;;;;;;5048123;28;20509;-74
2020/12/10 10:25:36;;;;;;;1.70;1.60;;;1.80;98.20;;;;;;5045681;28;21023;-74
2020/12/10 10:28:03;;;;;;;1.90;1.80;;;1.90;98.20;;;;;;5055171;28;20480;-74
2020/12/10 10:30:31;;;;;;;3.80;3.60;;;1.90;98.20;;;;;;5050629;28;20527;-73
2020/12/10 10:32:59;;;;;;;2.17;1.97;;;1.90;98.20;;;;;;5056091;28;20454;-74
2020/12/10 10:35:25;;;;;;;1.70;1.60;;;2.00;98.20;;;;;;5045741;28;20458;-72
2020/12/10 10:37:52;;;;;;;1.67;1.50;;;2.00;98.20;;;;;;5058350;28;20481;-73
2020/12/10 10:40:19;;;;;;;1.60;1.40;;;2.00;98.20;;;;;;5045088;28;20460;-74
2020/12/10 10:42:46;;;;;;;1.70;1.60;;;2.10;98.20;;;;;;5052302;28;20451;-73
2020/12/10 10:45:23;;;;;;;1.60;1.50;;;2.10;98.20;;;;;;5048194;28;20500;-73
2020/12/10 10:47:50;;;;;;;1.77;1.63;;;2.10;98.20;;;;;;5056167;28;20507;-74
2020/12/10 10:50:17;;;;;;;1.83;1.73;;;2.20;98.20;;;;;;5048456;28;20527;-73
2020/12/10 10:52:56;;;;;;;1.70;1.60;;;2.20;98.20;;;;;;5039589;28;20463;-72
2020/12/10 10:55:22;;;;;;;1.73;1.63;;;2.30;98.20;;;;;;5046697;28;20463;-73
2020/12/10 10:57:49;;;;;;;2.63;2.43;;;2.40;98.20;;;;;;5043880;28;20542;-74
2020/12/10 11:00:16;;;;;;;2.03;1.83;;;2.40;98.20;;;;;;5041727;28;20478;-73
2020/12/10 11:02:42;;;;;;;1.63;1.50;;;2.50;98.20;;;;;;5044606;28;20458;-74
2020/12/10 11:05:09;;;;;;;1.70;1.50;;;2.60;98.20;;;;;;5048250;28;20487;-75
2020/12/10 11:07:36;;;;;;;1.70;1.50;;;2.60;98.20;;;;;;5039660;28;20499;-75
2020/12/10 11:10:04;;;;;;;1.70;1.60;;;2.70;98.20;;;;;;5036992;28;20538;-75
2020/12/10 11:12:32;;;;;;;1.70;1.50;;;2.70;98.20;;;;;;5055004;28;20534;-75
2020/12/10 11:14:59;;;;;;;1.70;1.60;;;2.70;98.20;;;;;;5054265;28;20495;-75
2020/12/10 11:17:26;;;;;;;1.70;1.50;;;2.70;98.20;;;;;;5052264;28;20506;-74
2020/12/10 11:19:53;;;;;;;1.70;1.60;;;2.70;98.20;;;;;;5045940;28;20491;-74
2020/12/10 11:22:59;;;;;;;1.87;1.77;;;2.80;98.20;;;;;;5045485;28;20451;-75
2020/12/10 11:25:27;;;;;;;1.70;1.60;;;2.80;98.20;;;;;;5043012;28;20497;-74
2020/12/10 11:27:57;;;;;;;1.73;1.63;;;2.90;98.20;;;;;;5040879;28;20455;-75
2020/12/10 11:30:24;;;;;;;1.63;1.40;;;2.90;98.20;;;;;;5049739;28;20462;-74
2020/12/10 11:32:57;;;;;;;1.70;1.50;;;2.90;98.20;;;;;;5041623;28;20509;-74
2020/12/10 11:35:24;;;;;;;1.70;1.53;;;2.90;98.20;;;;;;5038237;28;20458;-74
2020/12/10 11:37:55;;;;;;;1.63;1.40;;;2.90;98.20;;;;;;5038314;28;20510;-74
2020/12/10 11:40:23;;;;;;;1.70;1.50;;;3.00;98.20;;;;;;5042469;28;20455;-73
2020/12/10 11:42:52;;;;;;;1.70;1.60;;;3.00;98.20;;;;;;5044498;28;20949;-74
2020/12/10 11:45:24;;;;;;;1.77;1.67;;;3.00;98.20;;;;;;5047606;28;20486;-74
2020/12/10 11:47:51;;;;;;;1.73;1.63;;;3.00;98.20;;;;;;5046392;28;20654;-75
2020/12/10 11:50:23;;;;;;;3.80;3.40;;;3.10;98.20;;;;;;5043483;28;20459;-75
2020/12/10 11:52:52;;;;;;;1.70;1.50;;;3.10;98.20;;;;;;5042207;28;20466;-73
2020/12/10 11:55:19;;;;;;;1.60;1.50;;;3.10;98.20;;;;;;5042999;28;20476;-74
2020/12/10 11:57:46;;;;;;;1.60;1.40;;;3.10;98.20;;;;;;5041146;28;20484;-74
2020/12/10 12:00:14;;;;;;;1.70;1.50;;;3.20;98.20;;;;;;5049740;28;20462;-74
2020/12/10 12:02:44;;;;;;;1.70;1.50;;;3.20;98.20;;;;;;5045113;28;20466;-73
2020/12/10 12:05:11;;;;;;;1.70;1.50;;;3.20;98.20;;;;;;5048968;28;20482;-75
2020/12/10 12:07:39;;;;;;;1.70;1.50;;;3.30;98.20;;;;;;5049147;28;20860;-73
2020/12/10 12:10:12;;;;;;;1.70;1.50;;;3.30;98.20;;;;;;5050200;28;20663;-74
2020/12/10 12:12:38;;;;;;;1.73;1.63;;;3.30;98.20;;;;;;5048536;28;20471;-73
2020/12/10 12:15:06;;;;;;;1.70;1.50;;;3.30;98.20;;;;;;5044245;28;20502;-74
2020/12/10 12:17:34;;;;;;;1.60;1.40;;;3.30;98.20;;;;;;5041326;28;20543;-73
2020/12/10 12:20:01;;;;;;;1.70;1.50;;;3.30;98.20;;;;;;5045544;28;20473;-74
2020/12/10 12:22:27;;;;;;;1.70;1.50;;;3.30;98.20;;;;;;5047505;28;20474;-74
2020/12/10 12:24:54;;;;;;;1.60;1.50;;;3.30;98.20;;;;;;5050721;28;20522;-73
2020/12/10 12:27:20;;;;;;;2.03;1.83;;;3.30;98.20;;;;;;5043760;28;20478;-74
2020/12/10 12:29:46;;;;;;;2.60;2.43;;;3.30;98.20;;;;;;5049555;28;20466;-73
2020/12/10 12:32:13;;;;;;;1.70;1.40;;;3.20;98.20;;;;;;5052002;28;20617;-74
2020/12/10 12:34:40;;;;;;;1.60;1.50;;;3.30;98.20;;;;;;5044341;28;20509;-73
2020/12/10 12:37:07;;;;;;;1.67;1.50;;;3.30;98.20;;;;;;5043158;28;20487;-74
2020/12/10 12:39:34;;;;;;;1.70;1.50;;;3.30;98.20;;;;;;5052083;28;20968;-73
2020/12/10 12:42:04;;;;;;;1.70;1.50;;;3.30;98.20;;;;;;5047363;28;21014;-74
2020/12/10 12:44:30;;;;;;;1.70;1.50;;;3.30;98.20;;;;;;5047343;28;20553;-74
2020/12/10 12:46:57;;;;;;;1.60;1.40;;;3.30;98.20;;;;;;5052001;28;20483;-73
2020/12/10 12:49:24;;;;;;;1.67;1.40;;;3.30;98.20;;;;;;5049346;28;21066;-73
2020/12/10 12:51:52;;;;;;;1.67;1.50;;;3.30;98.20;;;;;;5040852;28;20561;-74
2020/12/10 12:54:19;;;;;;;1.60;1.47;;;3.30;98.20;;;;;;5039636;28;20447;-74
2020/12/10 12:56:48;;;;;;;1.77;1.67;;;3.30;98.20;;;;;;5041286;28;20574;-74
2020/12/10 12:59:17;;;;;;;1.60;1.40;;;3.30;98.20;;;;;;5041268;28;20458;-74
2020/12/10 13:01:44;;;;;;;1.73;1.63;;;3.30;98.20;;;;;;5040121;28;20456;-73
2020/12/10 13:04:13;;;;;;;1.63;1.40;;;3.30;98.20;;;;;;5039403;28;20533;-75
2020/12/10 13:06:40;;;;;;;1.70;1.60;;;3.30;98.20;;;;;;5048466;28;20548;-73